• Join FlightAware (Why Join?)
  • Login
  • US Flag 
05:24PM EDT


 

Airport Tracker/Info


-or-


 

Live Flight TrackerFlight Track Log ✈ F-HPJG ✈ 11-May-2013 ✈ LFPG / CDG - FAOR / JNB

Flight Track Log - Related Links

Times and Time Zones

All times are in EDT time to prevent confusion due to time zone crossing. See the F-HPJG flight status page for this flight to view local times or setup timezone preferences in your user account.

Time Position Orientation Groundspeed Altitude Reporting Facility
EDT Latitude Longitude Course Direction KTS MPH feet Rate Location/Type
05:48PM 48.8911 2.6300 157° South  Level Estimated
05:49PM 48.7695 2.7097 157° South  Level Estimated
05:50PM 48.6477 2.7889 157° South  Level Estimated
05:51PM 48.5259 2.8678 157° South  Level Estimated
05:52PM 48.4040 2.9463 157° South  Level Estimated
05:53PM 48.2821 3.0244 157° South  Level Estimated
05:54PM 48.9968 2.5743 62° Northeast 5 6 200  Level FlightAware ADS-B
05:54PM 48.9964 2.5669 265° West 150 173 400 1,560 Climbing FlightAware ADS-B
05:54PM 48.9956 2.5504 266° West 143 165 800 1,500 Climbing FlightAware ADS-B
05:55PM 48.9947 2.5308 266° West 137 158 1,300 1,200 Climbing FlightAware ADS-B
05:55PM 48.9938 2.5085 266° West 143 165 1,700 1,200 Climbing FlightAware ADS-B
05:55PM 48.9929 2.4912 265° West 143 165 2,100 1,800 Climbing FlightAware ADS-B
05:56PM 48.9918 2.4690 266° West 141 162 2,900 2,100 Climbing FlightAware ADS-B
05:56PM 48.9909 2.4525 265° West 141 162 3,500 1,440 Climbing FlightAware ADS-B
05:56PM 48.9902 2.4319 267° West 141 162 3,800 720 Climbing FlightAware ADS-B
05:57PM 48.9885 2.3924 266° West 141 162 4,100 900 Climbing FlightAware ADS-B
05:57PM 48.9869 2.3677 264° West 228 262 4,500 2,100 Climbing FlightAware ADS-B
05:57PM 48.9852 2.3432 264° West 232 267 5,200 2,880 Climbing FlightAware ADS-B
05:58PM 48.9838 2.3253 263° West 233 268 5,800 3,000 Climbing FlightAware ADS-B
05:58PM 48.9822 2.3080 262° West 233 268 6,300 3,120 Climbing FlightAware ADS-B
05:58PM 48.9811 2.2935 263° West 233 268 6,800 2,700 Climbing FlightAware ADS-B
05:58PM 48.9795 2.2728 263° West 242 278 7,300 2,100 Climbing FlightAware ADS-B
05:58PM 48.9782 2.2601 261° West 248 285 7,500 1,620 Climbing FlightAware ADS-B
05:58PM 48.9773 2.2536 258° West 248 285 7,600 2,520 Climbing FlightAware ADS-B
05:58PM 48.9763 2.2478 255° West 247 284 7,800 3,420 Climbing FlightAware ADS-B
05:58PM 48.9748 2.2423 248° West 247 284 8,000 3,000 Climbing FlightAware ADS-B
05:58PM 48.9725 2.2359 241° Southwest 247 284 8,200 2,520 Climbing FlightAware ADS-B
05:58PM 48.9705 2.2315 236° Southwest 249 287 8,300 1,980 Climbing FlightAware ADS-B
05:59PM 48.9681 2.2270 230° Southwest 251 289 8,400 2,640 Climbing FlightAware ADS-B
05:59PM 48.9636 2.2206 223° Southwest 252 290 8,700 3,300 Climbing FlightAware ADS-B
05:59PM 48.9601 2.2165 217° Southwest 252 290 8,900 3,420 Climbing FlightAware ADS-B
05:59PM 48.9566 2.2133 211° Southwest 251 289 9,100 3,000 Climbing FlightAware ADS-B
05:59PM 48.9521 2.2101 205° Southwest 252 290 9,300 3,000 Climbing FlightAware ADS-B
05:59PM 48.9458 2.2060 203° Southwest 252 290 9,600 3,000 Climbing FlightAware ADS-B
05:59PM 48.9395 2.2016 205° Southwest 251 289 9,900 1,620 Climbing FlightAware ADS-B
06:00PM 48.9061 2.1761 207° Southwest 282 325 10,600 1,080 Climbing FlightAware ADS-B
06:00PM 48.8830 2.1589 206° Southwest 305 351 10,800 1,080 Climbing FlightAware ADS-B
06:00PM 48.8717 2.1517 203° Southwest 312 359 11,100 2,100 Climbing FlightAware ADS-B
06:00PM 48.8634 2.1480 196° South 317 365 11,300 2,280 Climbing FlightAware ADS-B
06:00PM 48.8528 2.1450 190° South 325 374 11,600 2,460 Climbing FlightAware ADS-B
06:00PM 48.8386 2.1441 182° South 330 380 12,000 3,000 Climbing FlightAware ADS-B
06:01PM 48.7928 2.1470 178° South 328 377 13,600 2,760 Climbing FlightAware ADS-B
06:01PM 48.7637 2.1495 177° South 339 390 14,300 1,680 Climbing FlightAware ADS-B
06:02PM 48.7149 2.1565 175° South 366 421 15,000 1,560 Climbing FlightAware ADS-B
06:02PM 48.6693 2.1628 175° South 379 436 15,800 1,320 Climbing FlightAware ADS-B
06:03PM 48.6146 2.1754 171° South 410 472 16,300 1,260 Climbing FlightAware ADS-B
06:03PM 48.5567 2.1919 169° South 425 489 17,100 1,980 Climbing FlightAware ADS-B
06:04PM 48.4980 2.2078 170° South 430 495 18,300 2,220 Climbing FlightAware ADS-B
06:04PM 48.4383 2.2231 170° South 437 503 19,400 1,920 Climbing FlightAware ADS-B
06:05PM 48.3771 2.2386 170° South 445 512 20,300 1,860 Climbing FlightAware ADS-B
06:05PM 48.3151 2.2544 170° South 451 519 21,300 1,740 Climbing FlightAware ADS-B
06:06PM 48.2502 2.2708 170° South 460 529 22,100 1,500 Climbing FlightAware ADS-B
06:06PM 48.1999 2.2837 170° South 470 541 22,700 1,620 Climbing FlightAware ADS-B
06:07PM 48.1352 2.3087 166° South 480 552 23,600 1,560 Climbing FlightAware ADS-B
06:07PM 48.0654 2.3364 165° South 488 562 24,400 1,440 Climbing FlightAware ADS-B
06:08PM 47.9561 2.3794 165° South 491 565 25,600 1,380 Climbing FlightAware ADS-B
06:08PM 47.8875 2.4064 165° South 505 581 26,300 1,380 Climbing FlightAware ADS-B
06:09PM 47.8190 2.4334 165° South 511 588 27,000 1,320 Climbing FlightAware ADS-B
06:09PM 47.7494 2.4609 165° South 515 593 27,700 1,200 Climbing FlightAware ADS-B
06:10PM 47.6724 2.4911 165° South 522 601 28,300 1,260 Climbing FlightAware ADS-B
06:11PM 47.5964 2.5208 165° South 524 603 29,100 1,500 Climbing FlightAware ADS-B
06:11PM 47.5168 2.5517 165° South 522 601 30,000 1,620 Climbing FlightAware ADS-B
06:12PM 47.4333 2.5841 165° South 521 600 31,000 1,740 Climbing FlightAware ADS-B
06:12PM 47.3626 2.6115 165° South 514 592 32,000 1,560 Climbing FlightAware ADS-B
06:13PM 47.2923 2.6386 165° South 514 592 32,600 1,800 Climbing FlightAware ADS-B
06:13PM 47.2015 2.6737 165° South 513 590 34,100 1,440 Climbing FlightAware ADS-B
06:14PM 47.0910 2.7160 165° South 498 573 35,000 480 Climbing FlightAware
06:15PM 46.9760 2.7640 164° South 512 589 35,000  Level FlightAware
06:16PM 46.8780 2.8140 161° South 512 589 35,000  Level FlightAware
06:17PM 46.7880 2.8570 162° South 513 590 35,000  Level FlightAware
06:17PM 46.6930 2.9010 162° South 513 590 35,000  Level FlightAware
06:18PM 46.5940 2.9490 162° South 507 583 35,000  Level FlightAware
06:19PM 46.5060 2.9900 162° South 506 582 35,000  Level FlightAware
06:19PM 46.4070 3.0370 162° South 506 582 35,000  Level FlightAware
06:20PM 46.3140 3.0800 162° South 506 582 35,000  Level FlightAware
06:21PM 46.2160 3.1260 162° South 505 581 35,000  Level FlightAware
06:21PM 46.1280 3.1670 162° South 502 578 35,000  Level FlightAware
06:22PM 46.0390 3.2080 162° South 502 578 35,000  Level FlightAware
06:23PM 45.9390 3.2540 162° South 504 580 35,000  Level FlightAware
06:24PM 45.8500 3.2950 162° South 504 580 35,000  Level FlightAware
06:24PM 45.7490 3.3410 162° South 511 588 35,000  Level FlightAware
06:25PM 45.6610 3.3810 162° South 511 588 35,000  Level FlightAware
06:26PM 45.5710 3.4220 162° South 511 588 35,000  Level FlightAware
06:26PM 45.4670 3.4690 162° South 511 588 35,000  Level FlightAware
06:27PM 45.3770 3.5100 162° South 505 581 35,000  Level FlightAware
06:28PM 45.2930 3.5470 163° South 503 579 35,000  Level FlightAware
06:28PM 45.1890 3.5940 162° South 507 583 35,000  Level FlightAware
06:29PM 45.0990 3.6340 163° South 507 583 35,000  Level FlightAware
06:30PM 45.0000 3.6780 163° South 509 586 35,000  Level FlightAware
06:31PM 44.9100 3.7180 163° South 508 585 35,000  Level FlightAware
06:31PM 44.8080 3.7630 163° South 512 589 35,000  Level FlightAware
06:32PM 44.7170 3.8030 163° South 512 589 35,000  Level FlightAware
06:33PM 44.6260 3.8430 163° South 510 587 35,000  Level FlightAware
06:33PM 44.5260 3.8870 163° South 517 595 35,000  Level FlightAware
06:34PM 44.4370 3.9260 163° South 517 595 35,000  Level FlightAware
06:35PM 44.3470 3.9650 163° South 512 589 35,000  Level FlightAware
06:35PM 44.2410 4.0110 163° South 517 595 35,000  Level FlightAware
06:36PM 44.1480 4.0510 163° South 517 595 35,000  Level FlightAware
06:37PM 44.0490 4.0930 163° South 516 594 35,000  Level FlightAware
06:38PM 43.9570 4.1330 163° South 510 587 35,000  Level FlightAware
06:38PM 43.8560 4.1760 163° South 513 590 35,000  Level FlightAware
06:39PM 43.7630 4.2150 163° South 515 593 35,000  Level FlightAware
06:40PM 43.6710 4.2550 163° South 515 593 35,000  Level FlightAware
06:40PM 43.5800 4.2930 163° South 515 593 35,000  Level FlightAware
06:41PM 43.4800 4.3350 163° South 514 592 35,000  Level FlightAware
06:42PM 43.3890 4.3730 163° South 506 582 35,000  Level FlightAware
06:42PM 43.2900 4.4150 163° South 508 585 35,000  Level FlightAware
06:43PM 43.1990 4.4530 163° South 510 587 35,000  Level FlightAware
06:44PM 43.0960 4.4960 163° South 509 586 35,000  Level FlightAware
06:45PM 43.0060 4.5330 163° South 512 589 35,000 360 Level FlightAware
06:45PM 42.9150 4.5710 163° South 517 595 35,500 660 Climbing FlightAware
06:46PM 42.8150 4.6120 163° South 521 600 36,000 720 Climbing FlightAware
06:47PM 42.7210 4.6510 163° South 522 601 36,600 780 Climbing FlightAware
06:47PM 42.6410 4.6830 164° South 515 593 37,000 240 Climbing FlightAware
06:48PM 42.5260 4.7300 163° South 514 592 37,000  Level FlightAware
06:49PM 42.4700 4.7530 163° South 512 589 37,000  Level FlightAware
06:49PM 42.3760 4.7910 163° South 510 587 37,000  Level FlightAware
06:50PM 42.3030 4.8210 163° South 511 588 37,000  Level FlightAware
06:51PM 42.1770 4.8720 163° South 512 589 37,000  Level FlightAware
06:52PM 42.0490 4.9230 164° South 512 589 37,000  Level FlightAware
06:52PM 41.9270 4.9720 163° South 512 589 37,000  Level FlightAware
06:53PM 41.8220 5.0140 163° South 512 589 37,000  Level FlightAware
06:54PM 41.7310 5.0500 164° South 511 588 37,000  Level FlightAware
06:55PM 41.6420 5.0850 164° South 511 588 37,000  Level FlightAware
06:55PM 41.5400 5.1250 164° South 512 589 37,000  Level FlightAware
06:56PM 41.4560 5.1580 164° South 512 589 37,000  Level FlightAware
06:57PM 41.3470 5.2010 164° South 511 588 37,000  Level FlightAware
06:57PM 41.2540 5.2380 163° South 514 592 37,000  Level FlightAware
06:58PM 41.1760 5.2680 164° South 519 597 37,000  Level FlightAware
06:59PM 41.0630 5.3120 164° South 520 598 37,000  Level FlightAware
07:00PM 40.9440 5.3590 163° South 521 600 37,000  Level FlightAware
07:00PM 40.8410 5.3980 164° South 524 603 37,000  Level FlightAware
07:01PM 40.7320 5.4400 164° South 525 604 37,000  Level FlightAware
07:02PM 40.6260 5.4820 163° South 524 603 37,000  Level FlightAware
07:03PM 40.5470 5.5130 163° South 524 603 37,000  Level FlightAware
07:03PM 40.4490 5.5530 163° South 524 603 37,000  Level FlightAware
07:04PM 40.3700 5.5840 163° South 524 603 37,000  Level FlightAware
07:05PM 40.2910 5.6160 163° South 524 603 37,000  Level FlightAware
07:06PM 40.1310 5.6690 166° South 515 593 37,000  Level FlightAware
07:06PM 40.0400 5.7030 164° South 518 596 37,000  Level FlightAware
07:07PM 39.9350 5.7420 164° South 521 600 37,000  Level FlightAware
07:08PM 39.8290 5.7820 164° South 521 600 37,000  Level FlightAware
07:08PM 39.7430 5.8140 164° South 520 598 37,000  Level FlightAware
07:09PM 39.6340 5.8540 164° South 522 601 37,000  Level FlightAware
07:10PM 39.5410 5.8890 164° South 521 600 37,000  Level FlightAware
07:10PM 39.4460 5.9240 164° South 519 597 37,000  Level FlightAware
07:11PM 39.3420 5.9630 164° South 517 595 37,000  Level FlightAware
07:12PM 39.2500 5.9970 164° South 506 582 37,000  Level FlightAware
07:13PM 39.1460 6.0350 164° South 504 580 37,000  Level FlightAware
07:13PM 39.0540 6.0680 164° South 506 582 37,000  Level FlightAware
07:14PM 38.9720 6.0940 166° South 506 582 37,000  Level FlightAware
07:15PM 38.8570 6.1160 172° South 506 582 37,000  Level FlightAware
07:15PM 38.7900 6.1310 170° South 507 583 37,000  Level FlightAware
07:16PM 38.6600 6.1560 171° South 501 577 37,000  Level FlightAware
07:17PM 38.5820 6.1710 171° South 501 577 37,000  Level FlightAware
07:17PM 38.5040 6.1870 171° South 501 577 37,000  Level FlightAware
07:18PM 38.4260 6.2030 171° South 501 577 37,000  Level FlightAware
07:19PM 38.3480 6.2180 171° South 501 577 37,000  Level FlightAware
07:20PM 38.1380 6.2580 171° South 484 557 37,000  Level FlightAware
07:21PM 37.9870 6.2870 171° South 485 558 37,000  Level FlightAware
07:22PM 37.9120 6.3030 170° South 485 558 37,000  Level FlightAware
07:23PM 37.8180 6.3210 171° South 485 558 37,000  Level FlightAware
07:23PM 37.7420 6.3360 171° South 485 558 37,000  Level FlightAware
07:24PM 37.6670 6.3520 170° South 485 558 37,000  Level FlightAware
07:25PM 37.5920 6.3670 171° South 485 558 37,000  Level FlightAware
07:25PM 37.5160 6.3820 171° South 485 558 37,000  Level FlightAware
07:26PM 37.4410 6.3970 171° South 485 558 37,000  Level FlightAware
07:27PM 37.3470 6.4160 171° South 485 558 37,000  Level FlightAware
07:27PM 37.2720 6.4310 171° South 485 558 37,000  Level FlightAware
07:28PM 37.1960 6.4460 171° South 485 558 37,000  Level FlightAware
07:29PM 37.1210 6.4600 172° South 485 558 37,000  Level FlightAware
07:30PM 37.0270 6.4790 171° South 485 558 37,000  Level FlightAware
07:30PM 36.9510 6.4940 171° South 485 558 37,000  Level FlightAware
07:33PM 36.6866 6.6225 159° South  Level Estimated
07:34PM 36.5673 6.6802 159° South  Level Estimated
07:35PM 36.4480 6.7377 159° South  Level Estimated
07:36PM 36.3294 6.7946 159° South  Level Estimated
07:37PM 36.2108 6.8514 159° South  Level Estimated
07:38PM 36.0921 6.9080 159° South  Level Estimated
07:39PM 35.9734 6.9645 159° South  Level Estimated
07:40PM 35.8548 7.0207 159° South  Level Estimated
07:41PM 35.7360 7.0768 159° South  Level Estimated
07:42PM 35.6173 7.1328 159° South  Level Estimated
07:43PM 35.4985 7.1885 159° South  Level Estimated
07:44PM 35.3797 7.2442 159° South  Level Estimated
07:45PM 35.2609 7.2996 159° South  Level Estimated
07:46PM 35.1420 7.3549 159° South  Level Estimated
07:47PM 35.0231 7.4100 159° South  Level Estimated
07:48PM 34.9042 7.4650 159° South  Level Estimated
07:49PM 34.7853 7.5198 159° South  Level Estimated
07:50PM 34.6664 7.5744 159° South  Level Estimated
07:51PM 34.5474 7.6289 159° South  Level Estimated
07:52PM 34.4284 7.6832 159° South  Level Estimated
07:53PM 34.3093 7.7374 159° South  Level Estimated
07:54PM 34.1903 7.7914 159° South  Level Estimated
07:55PM 34.0712 7.8453 159° South  Level Estimated
07:56PM 33.9521 7.8990 159° South  Level Estimated
07:57PM 33.8330 7.9526 160° South  Level Estimated
07:58PM 33.7139 8.0060 160° South  Level Estimated
07:59PM 33.5947 8.0592 160° South  Level Estimated
08:00PM 33.4755 8.1124 160° South  Level Estimated
08:01PM 33.3563 8.1653 160° South  Level Estimated
08:02PM 33.2371 8.2182 160° South  Level Estimated
08:03PM 33.1178 8.2709 160° South  Level Estimated
08:04PM 32.9985 8.3234 160° South  Level Estimated
08:05PM 32.8792 8.3758 160° South  Level Estimated
08:06PM 32.7599 8.4281 160° South  Level Estimated
08:07PM 32.6406 8.4802 160° South  Level Estimated
08:08PM 32.5212 8.5322 160° South  Level Estimated
08:09PM 32.4018 8.5840 160° South  Level Estimated
08:10PM 32.2824 8.6357 160° South  Level Estimated
08:11PM 32.1630 8.6873 160° South  Level Estimated
08:12PM 32.0435 8.7388 160° South  Level Estimated
08:13PM 31.9240 8.7900 160° South  Level Estimated
08:14PM 31.8046 8.8412 160° South  Level Estimated
08:15PM 31.6850 8.8923 160° South  Level Estimated
08:16PM 31.5655 8.9432 160° South  Level Estimated
08:17PM 31.4460 8.9939 160° South  Level Estimated
08:18PM 31.3264 9.0446 160° South  Level Estimated
08:19PM 31.2068 9.0951 160° South  Level Estimated
08:20PM 31.0872 9.1455 160° South  Level Estimated
08:21PM 30.9676 9.1958 160° South  Level Estimated
08:22PM 30.8479 9.2459 160° South  Level Estimated
08:23PM 30.7283 9.2959 160° South  Level Estimated
08:24PM 30.6086 9.3458 160° South  Level Estimated
08:25PM 30.4888 9.3956 160° South  Level Estimated
08:26PM 30.3691 9.4452 160° South  Level Estimated
08:27PM 30.2494 9.4948 160° South  Level Estimated
08:28PM 30.1296 9.5442 160° South  Level Estimated
08:29PM 30.0098 9.5934 160° South  Level Estimated
08:30PM 29.8900 9.6426 160° South  Level Estimated
08:31PM 29.7702 9.6916 160° South  Level Estimated
08:32PM 29.6504 9.7406 160° South  Level Estimated
08:33PM 29.5305 9.7894 160° South  Level Estimated
08:34PM 29.4107 9.8381 161° South  Level Estimated
08:35PM 29.2908 9.8867 161° South  Level Estimated
08:36PM 29.1709 9.9351 161° South  Level Estimated
08:37PM 29.0509 9.9835 161° South  Level Estimated
08:38PM 28.9310 10.0317 161° South  Level Estimated
08:39PM 28.8110 10.0799 161° South  Level Estimated
08:40PM 28.6911 10.1279 161° South  Level Estimated
08:41PM 28.5711 10.1758 161° South  Level Estimated
08:42PM 28.4511 10.2236 161° South  Level Estimated
08:43PM 28.3310 10.2713 161° South  Level Estimated
08:44PM 28.2110 10.3189 161° South  Level Estimated
08:45PM 28.0909 10.3664 161° South  Level Estimated
08:46PM 27.9708 10.4137 161° South  Level Estimated
08:47PM 27.8508 10.4610 161° South  Level Estimated
08:48PM 27.7306 10.5082 161° South  Level Estimated
08:49PM 27.6105 10.5552 161° South  Level Estimated
08:50PM 27.4904 10.6022 161° South  Level Estimated
08:51PM 27.3702 10.6490 161° South  Level Estimated
08:52PM 27.2501 10.6958 161° South  Level Estimated
08:53PM 27.1299 10.7424 161° South  Level Estimated
08:54PM 27.0097 10.7890 161° South  Level Estimated
08:55PM 26.8895 10.8354 161° South  Level Estimated
08:56PM 26.7692 10.8818 161° South  Level Estimated
08:57PM 26.6490 10.9280 161° South  Level Estimated
08:58PM 26.5287 10.9742 161° South  Level Estimated
08:59PM 26.4084 11.0202 161° South  Level Estimated
09:00PM 26.2881 11.0662 161° South  Level Estimated
09:01PM 26.1678 11.1121 161° South  Level Estimated
09:02PM 26.0475 11.1578 161° South  Level Estimated
09:03PM 25.9272 11.2035 161° South  Level Estimated
09:04PM 25.8068 11.2491 161° South  Level Estimated
09:05PM 25.6865 11.2946 161° South  Level Estimated
09:06PM 25.5661 11.3400 161° South  Level Estimated
09:07PM 25.4457 11.3853 161° South  Level Estimated
09:08PM 25.3253 11.4305 161° South  Level Estimated
09:09PM 25.2049 11.4757 161° South  Level Estimated
09:10PM 25.0844 11.5207 161° South  Level Estimated
09:11PM 24.9640 11.5657 161° South  Level Estimated
09:12PM 24.8435 11.6105 161° South  Level Estimated
09:13PM 24.7230 11.6553 161° South  Level Estimated
09:14PM 24.6026 11.7000 161° South  Level Estimated
09:15PM 24.4821 11.7446 161° South  Level Estimated
09:16PM 24.3615 11.7891 161° South  Level Estimated
09:17PM 24.2410 11.8336 161° South  Level Estimated
09:18PM 24.1205 11.8779 161° South  Level Estimated
09:19PM 23.9999 11.9222 161° South  Level Estimated
09:20PM 23.8794 11.9664 161° South  Level Estimated
09:21PM 23.7588 12.0105 161° South  Level Estimated
09:22PM 23.6382 12.0545 162° South  Level Estimated
09:23PM 23.5176 12.0984 162° South  Level Estimated
09:24PM 23.3970 12.1423 162° South  Level Estimated
09:25PM 23.2764 12.1861 162° South  Level Estimated
09:26PM 23.1557 12.2298 162° South  Level Estimated
09:27PM 23.0351 12.2734 162° South  Level Estimated
09:28PM 22.9144 12.3169 162° South  Level Estimated
09:29PM 22.7937 12.3604 162° South  Level Estimated
09:30PM 22.6730 12.4038 162° South  Level Estimated
09:31PM 22.5523 12.4471 162° South  Level Estimated
09:32PM 22.4316 12.4903 162° South  Level Estimated
09:33PM 22.3109 12.5335 162° South  Level Estimated
09:34PM 22.1902 12.5766 162° South  Level Estimated
09:35PM 22.0695 12.6196 162° South  Level Estimated
09:36PM 21.9487 12.6625 162° South  Level Estimated
09:37PM 21.8279 12.7054 162° South  Level Estimated
09:38PM 21.7071 12.7482 162° South  Level Estimated
09:39PM 21.5864 12.7909 162° South  Level Estimated
09:40PM 21.4656 12.8336 162° South  Level Estimated
09:41PM 21.3447 12.8762 162° South  Level Estimated
09:42PM 21.2239 12.9187 162° South  Level Estimated
09:43PM 21.1031 12.9611 162° South  Level Estimated
09:44PM 20.9823 13.0035 162° South  Level Estimated
09:45PM 20.8614 13.0458 162° South  Level Estimated
09:46PM 20.7405 13.0880 162° South  Level Estimated
09:47PM 20.6197 13.1302 162° South  Level Estimated
09:48PM 20.4988 13.1723 162° South  Level Estimated
09:49PM 20.3779 13.2143 162° South  Level Estimated
09:50PM 20.2570 13.2563 162° South  Level Estimated
09:51PM 20.1361 13.2982 162° South  Level Estimated
09:52PM 20.0152 13.3401 162° South  Level Estimated
09:53PM 19.8943 13.3819 162° South  Level Estimated
09:54PM 19.7733 13.4236 162° South  Level Estimated
09:55PM 19.6524 13.4652 162° South  Level Estimated
09:56PM 19.5314 13.5068 162° South  Level Estimated
09:57PM 19.4104 13.5483 162° South  Level Estimated
09:58PM 19.2894 13.5898 162° South  Level Estimated
09:59PM 19.1685 13.6312 162° South  Level Estimated
10:00PM 19.0475 13.6725 162° South  Level Estimated
10:01PM 18.9265 13.7138 162° South  Level Estimated
10:02PM 18.8054 13.7550 162° South  Level Estimated
10:03PM 18.6844 13.7962 162° South  Level Estimated
10:04PM 18.5634 13.8373 162° South  Level Estimated
10:05PM 18.4423 13.8783 162° South  Level Estimated
10:06PM 18.3213 13.9193 162° South  Level Estimated
10:07PM 18.2002 13.9602 162° South  Level Estimated
10:08PM 18.0791 14.0011 162° South  Level Estimated
10:09PM 17.9581 14.0419 162° South  Level Estimated
10:10PM 17.8370 14.0827 162° South  Level Estimated
10:11PM 17.7159 14.1234 162° South  Level Estimated
10:12PM 17.5948 14.1640 162° South  Level Estimated
10:13PM 17.4737 14.2046 162° South  Level Estimated
10:14PM 17.3525 14.2452 162° South  Level Estimated
10:15PM 17.2314 14.2857 162° South  Level Estimated
10:16PM 17.1103 14.3261 162° South  Level Estimated
10:17PM 16.9891 14.3665 162° South  Level Estimated
10:18PM 16.8680 14.4068 162° South  Level Estimated
10:19PM 16.7468 14.4471 162° South  Level Estimated
10:20PM 16.6257 14.4873 162° South  Level Estimated
10:21PM 16.5045 14.5275 162° South  Level Estimated
10:22PM 16.3833 14.5676 162° South  Level Estimated
10:23PM 16.2621 14.6077 162° South  Level Estimated
10:24PM 16.1409 14.6477 162° South  Level Estimated
10:25PM 16.0197 14.6877 162° South  Level Estimated
10:26PM 15.8985 14.7276 162° South  Level Estimated
10:27PM 15.7773 14.7675 162° South  Level Estimated
10:28PM 15.6560 14.8074 162° South  Level Estimated
10:29PM 15.5348 14.8471 162° South  Level Estimated
10:30PM 15.4136 14.8869 162° South  Level Estimated
10:31PM 15.2923 14.9266 162° South  Level Estimated
10:32PM 15.1710 14.9662 162° South  Level Estimated
10:33PM 15.0498 15.0058 162° South  Level Estimated
10:34PM 14.9285 15.0454 163° South  Level Estimated
10:35PM 14.8072 15.0849 163° South  Level Estimated
10:36PM 14.6860 15.1244 163° South  Level Estimated
10:37PM 14.5647 15.1638 163° South  Level Estimated
10:38PM 14.4434 15.2032 163° South  Level Estimated
10:39PM 14.3221 15.2425 163° South  Level Estimated
10:40PM 14.2008 15.2818 163° South  Level Estimated
10:41PM 14.0794 15.3211 163° South  Level Estimated
10:42PM 13.9581 15.3603 163° South  Level Estimated
10:43PM 13.8368 15.3994 163° South  Level Estimated
10:44PM 13.7154 15.4386 163° South  Level Estimated
10:45PM 13.5941 15.4777 163° South  Level Estimated
10:46PM 13.4727 15.5167 163° South  Level Estimated
10:47PM 13.3514 15.5557 163° South  Level Estimated
10:48PM 13.2300 15.5947 163° South  Level Estimated
10:49PM 13.1087 15.6336 163° South  Level Estimated
10:50PM 12.9873 15.6725 163° South  Level Estimated
10:51PM 12.8659 15.7114 163° South  Level Estimated
10:52PM 12.7445 15.7502 163° South  Level Estimated
10:53PM 12.6231 15.7890 163° South  Level Estimated
10:54PM 12.5018 15.8277 163° South  Level Estimated
10:55PM 12.3804 15.8664 163° South  Level Estimated
10:56PM 12.2590 15.9051 163° South  Level Estimated
10:57PM 12.1375 15.9437 163° South  Level Estimated
10:58PM 12.0161 15.9823 163° South  Level Estimated
10:59PM 11.8947 16.0209 163° South  Level Estimated
11:00PM 11.7733 16.0594 163° South  Level Estimated
11:01PM 11.6518 16.0979 163° South  Level Estimated
11:02PM 11.5304 16.1364 163° South  Level Estimated
11:03PM 11.4090 16.1748 163° South  Level Estimated
11:04PM 11.2875 16.2132 163° South  Level Estimated
11:05PM 11.1661 16.2516 163° South  Level Estimated
11:06PM 11.0446 16.2899 163° South  Level Estimated
11:07PM 10.9231 16.3282 163° South  Level Estimated
11:08PM 10.8017 16.3665 163° South  Level Estimated
11:09PM 10.6802 16.4047 163° South  Level Estimated
11:10PM 10.5587 16.4429 163° South  Level Estimated
11:11PM 10.4372 16.4811 163° South  Level Estimated
11:12PM 10.3158 16.5193 163° South  Level Estimated
11:13PM 10.1943 16.5574 163° South  Level Estimated
11:14PM 10.0728 16.5955 163° South  Level Estimated
11:15PM 9.9513 16.6335 163° South  Level Estimated
11:16PM 9.8298 16.6716 163° South  Level Estimated
11:17PM 9.7083 16.7096 163° South  Level Estimated
11:18PM 9.5868 16.7475 163° South  Level Estimated
11:19PM 9.4653 16.7855 163° South  Level Estimated
11:20PM 9.3437 16.8234 163° South  Level Estimated
11:21PM 9.2222 16.8613 163° South  Level Estimated
11:22PM 9.1007 16.8992 163° South  Level Estimated
11:23PM 8.9791 16.9370 163° South  Level Estimated
11:24PM 8.8576 16.9748 163° South  Level Estimated
11:25PM 8.7361 17.0126 163° South  Level Estimated
11:26PM 8.6145 17.0504 163° South  Level Estimated
11:27PM 8.4930 17.0881 163° South  Level Estimated
11:28PM 8.3714 17.1259 163° South  Level Estimated
11:29PM 8.2499 17.1636 163° South  Level Estimated
11:30PM 8.1283 17.2012 163° South  Level Estimated
11:31PM 8.0068 17.2389 163° South  Level Estimated
11:32PM 7.8852 17.2765 163° South  Level Estimated
11:33PM 7.7636 17.3141 163° South  Level Estimated
11:34PM 7.6421 17.3517 163° South  Level Estimated
11:35PM 7.5205 17.3893 163° South  Level Estimated
11:36PM 7.3989 17.4268 163° South  Level Estimated
11:37PM 7.2773 17.4643 163° South  Level Estimated
11:38PM 7.1558 17.5018 163° South  Level Estimated
11:39PM 7.0342 17.5393 163° South  Level Estimated
11:40PM 6.9126 17.5768 163° South  Level Estimated
11:41PM 6.7910 17.6142 163° South  Level Estimated
11:42PM 6.6694 17.6516 163° South  Level Estimated
11:43PM 6.5478 17.6890 163° South  Level Estimated
11:44PM 6.4262 17.7264 163° South  Level Estimated
11:45PM 6.3046 17.7638 163° South  Level Estimated
11:46PM 6.1830 17.8011 163° South  Level Estimated
11:47PM 6.0614 17.8385 163° South  Level Estimated
11:48PM 5.9398 17.8758 163° South  Level Estimated
11:49PM 5.8182 17.9131 163° South  Level Estimated
11:50PM 5.6965 17.9504 163° South  Level Estimated
11:51PM 5.5749 17.9877 163° South  Level Estimated
11:52PM 5.4533 18.0249 163° South  Level Estimated
11:53PM 5.3317 18.0622 163° South  Level Estimated
11:54PM 5.2101 18.0994 163° South  Level Estimated
11:55PM 5.0884 18.1366 163° South  Level Estimated
11:56PM 4.9668 18.1738 163° South  Level Estimated
11:57PM 4.8452 18.2110 163° South  Level Estimated
11:58PM 4.7235 18.2481 163° South  Level Estimated
11:59PM 4.6019 18.2853 163° South  Level Estimated
12:00AM 4.4803 18.3224 163° South  Level Estimated
12:01AM 4.3586 18.3596 163° South  Level Estimated
12:02AM 4.2370 18.3967 163° South  Level Estimated
12:03AM 4.1153 18.4338 163° South  Level Estimated
12:04AM 3.9937 18.4709 163° South  Level Estimated
12:05AM 3.8721 18.5080 163° South  Level Estimated
12:06AM 3.7504 18.5450 163° South  Level Estimated
12:07AM 3.6288 18.5821 163° South  Level Estimated
12:08AM 3.5071 18.6192 163° South  Level Estimated
12:09AM 3.3854 18.6562 163° South  Level Estimated
12:10AM 3.2638 18.6932 163° South  Level Estimated
12:11AM 3.1421 18.7303 163° South  Level Estimated
12:12AM 3.0205 18.7673 163° South  Level Estimated
12:13AM 2.8988 18.8043 163° South  Level Estimated
12:14AM 2.7772 18.8413 163° South  Level Estimated
12:15AM 2.6555 18.8783 163° South  Level Estimated
12:16AM 2.5338 18.9153 163° South  Level Estimated
12:17AM 2.4122 18.9523 163° South  Level Estimated
12:18AM 2.2905 18.9892 163° South  Level Estimated
12:19AM 2.1689 19.0262 163° South  Level Estimated
12:20AM 2.0472 19.0632 163° South  Level Estimated
12:21AM 1.9255 19.1001 163° South  Level Estimated
12:22AM 1.8039 19.1371 163° South  Level Estimated
12:23AM 1.6822 19.1740 163° South  Level Estimated
12:24AM 1.5605 19.2109 163° South  Level Estimated
12:25AM 1.4388 19.2479 163° South  Level Estimated
12:26AM 1.3172 19.2848 163° South  Level Estimated
12:27AM 1.1955 19.3217 163° South  Level Estimated
12:28AM 1.0738 19.3587 163° South  Level Estimated
12:29AM 0.9522 19.3956 163° South  Level Estimated
12:30AM 0.8305 19.4325 163° South  Level Estimated
12:31AM 0.7088 19.4694 163° South  Level Estimated
12:32AM 0.5871 19.5063 163° South  Level Estimated
12:33AM 0.4655 19.5433 163° South  Level Estimated
12:34AM 0.3438 19.5802 163° South  Level Estimated
12:35AM 0.2221 19.6171 163° South  Level Estimated
12:36AM 0.1005 19.6540 163° South  Level Estimated
12:37AM -0.0212 19.6909 163° South  Level Estimated
12:38AM -0.1429 19.7278 163° South  Level Estimated
12:39AM -0.2645 19.7647 163° South  Level Estimated
12:40AM -0.3862 19.8016 163° South  Level Estimated
12:41AM -0.5079 19.8385 163° South  Level Estimated
12:42AM -0.6295 19.8755 163° South  Level Estimated
12:43AM -0.7512 19.9124 163° South  Level Estimated
12:44AM -0.8729 19.9493 163° South  Level Estimated
12:45AM -0.9946 19.9862 163° South  Level Estimated
12:46AM -1.1162 20.0231 163° South  Level Estimated
12:47AM -1.2379 20.0601 163° South  Level Estimated
12:48AM -1.3596 20.0970 163° South  Level Estimated
12:49AM -1.4812 20.1339 163° South  Level Estimated
12:50AM -1.6029 20.1709 163° South  Level Estimated
12:51AM -1.7246 20.2078 163° South  Level Estimated
12:52AM -1.8463 20.2447 163° South  Level Estimated
12:53AM -1.9679 20.2817 163° South  Level Estimated
12:54AM -2.0896 20.3187 163° South  Level Estimated
12:55AM -2.2113 20.3556 163° South  Level Estimated
12:56AM -2.3329 20.3926 163° South  Level Estimated
12:57AM -2.4546 20.4296 163° South  Level Estimated
12:58AM -2.5762 20.4666 163° South  Level Estimated
12:59AM -2.6979 20.5035 163° South  Level Estimated
01:00AM -2.8196 20.5405 163° South  Level Estimated
01:01AM -2.9412 20.5775 163° South  Level Estimated
01:02AM -3.0629 20.6145 163° South  Level Estimated
01:03AM -3.1845 20.6516 163° South  Level Estimated
01:04AM -3.3062 20.6886 163° South  Level Estimated
01:05AM -3.4278 20.7256 163° South  Level Estimated
01:06AM -3.5495 20.7627 163° South  Level Estimated
01:07AM -3.6711 20.7997 163° South  Level Estimated
01:08AM -3.7928 20.8368 163° South  Level Estimated
01:09AM -3.9144 20.8739 163° South  Level Estimated
01:10AM -4.0361 20.9110 163° South  Level Estimated
01:11AM -4.1577 20.9481 163° South  Level Estimated
01:12AM -4.2794 20.9852 163° South  Level Estimated
01:13AM -4.4010 21.0223 163° South  Level Estimated
01:14AM -4.5226 21.0595 163° South  Level Estimated
01:15AM -4.6443 21.0966 163° South  Level Estimated
01:16AM -4.7659 21.1338 163° South  Level Estimated
01:17AM -4.8875 21.1709 163° South  Level Estimated
01:18AM -5.0092 21.2081 163° South  Level Estimated
01:19AM -5.1308 21.2453 163° South  Level Estimated
01:20AM -5.2524 21.2826 163° South  Level Estimated
01:21AM -5.3741 21.3198 163° South  Level Estimated
01:22AM -5.4957 21.3570 163° South  Level Estimated
01:23AM -5.6173 21.3943 163° South  Level Estimated
01:24AM -5.7389 21.4316 163° South  Level Estimated
01:25AM -5.8605 21.4688 163° South  Level Estimated
01:26AM -5.9821 21.5062 163° South  Level Estimated
01:27AM -6.1037 21.5435 163° South  Level Estimated
01:28AM -6.2253 21.5808 163° South  Level Estimated
01:29AM -6.3470 21.6182 163° South  Level Estimated
01:30AM -6.4686 21.6556 163° South  Level Estimated
01:31AM -6.5901 21.6929 163° South  Level Estimated
01:32AM -6.7118 21.7304 163° South  Level Estimated
01:33AM -6.8333 21.7678 163° South  Level Estimated
01:34AM -6.9549 21.8052 163° South  Level Estimated
01:35AM -7.0765 21.8427 163° South  Level Estimated
01:36AM -7.1981 21.8802 163° South  Level Estimated
01:37AM -7.3197 21.9177 163° South  Level Estimated
01:38AM -7.4413 21.9552 163° South  Level Estimated
01:39AM -7.5628 21.9928 163° South  Level Estimated
01:40AM -7.6844 22.0304 163° South  Level Estimated
01:41AM -7.8060 22.0679 163° South  Level Estimated
01:42AM -7.9275 22.1056 163° South  Level Estimated
01:43AM -8.0491 22.1432 163° South  Level Estimated
01:44AM -8.1707 22.1809 163° South  Level Estimated
01:45AM -8.2922 22.2185 163° South  Level Estimated
01:46AM -8.4138 22.2563 163° South  Level Estimated
01:47AM -8.5353 22.2940 163° South  Level Estimated
01:48AM -8.6569 22.3317 163° South  Level Estimated
01:49AM -8.7784 22.3695 163° South  Level Estimated
01:50AM -8.9000 22.4073 163° South  Level Estimated
01:51AM -9.0215 22.4452 163° South  Level Estimated
01:52AM -9.1430 22.4830 163° South  Level Estimated
01:53AM -9.2645 22.5209 163° South  Level Estimated
01:54AM -9.3861 22.5588 163° South  Level Estimated
01:55AM -9.5076 22.5967 163° South  Level Estimated
01:56AM -9.6291 22.6347 163° South  Level Estimated
01:57AM -9.7506 22.6727 163° South  Level Estimated
01:58AM -9.8721 22.7107 163° South  Level Estimated
01:59AM -9.9936 22.7487 163° South  Level Estimated
02:00AM -10.1151 22.7868 163° South  Level Estimated
02:01AM -10.2366 22.8249 163° South  Level Estimated
02:02AM -10.3581 22.8630 163° South  Level Estimated
02:03AM -10.4796 22.9012 163° South  Level Estimated
02:04AM -10.6011 22.9394 163° South  Level Estimated
02:05AM -10.7225 22.9776 163° South  Level Estimated
02:06AM -10.8440 23.0158 163° South  Level Estimated
02:07AM -10.9655 23.0541 163° South  Level Estimated
02:08AM -11.0869 23.0924 163° South  Level Estimated
02:09AM -11.2084 23.1308 163° South  Level Estimated
02:10AM -11.3298 23.1691 163° South  Level Estimated
02:11AM -11.4513 23.2076 163° South  Level Estimated
02:12AM -11.5727 23.2460 163° South  Level Estimated
02:13AM -11.6941 23.2845 163° South  Level Estimated
02:14AM -11.8156 23.3230 163° South  Level Estimated
02:15AM -11.9370 23.3615 163° South  Level Estimated
02:16AM -12.0584 23.4001 163° South  Level Estimated
02:17AM -12.1798 23.4387 163° South  Level Estimated
02:18AM -12.3012 23.4774 163° South  Level Estimated
02:19AM -12.4226 23.5160 163° South  Level Estimated
02:20AM -12.5440 23.5548 163° South  Level Estimated
02:21AM -12.6654 23.5935 163° South  Level Estimated
02:22AM -12.7868 23.6323 163° South  Level Estimated
02:23AM -12.9082 23.6711 163° South  Level Estimated
02:24AM -13.0296 23.7100 163° South  Level Estimated
02:25AM -13.1510 23.7489 163° South  Level Estimated
02:26AM -13.2723 23.7879 163° South  Level Estimated
02:27AM -13.3937 23.8268 163° South  Level Estimated
02:28AM -13.5150 23.8659 163° South  Level Estimated
02:29AM -13.6364 23.9049 163° South  Level Estimated
02:30AM -13.7577 23.9440 163° South  Level Estimated
02:31AM -13.8790 23.9832 163° South  Level Estimated
02:32AM -14.0004 24.0223 163° South  Level Estimated
02:33AM -14.1217 24.0616 163° South  Level Estimated
02:34AM -14.2430 24.1008 163° South  Level Estimated
02:35AM -14.3643 24.1402 163° South  Level Estimated
02:36AM -14.4856 24.1795 163° South  Level Estimated
02:37AM -14.6069 24.2189 163° South  Level Estimated
02:38AM -14.7282 24.2583 163° South  Level Estimated
02:39AM -14.8495 24.2978 163° South  Level Estimated
02:40AM -14.9708 24.3374 163° South  Level Estimated
02:41AM -15.0920 24.3769 163° South  Level Estimated
02:42AM -15.2133 24.4165 163° South  Level Estimated
02:43AM -15.3345 24.4562 162° South  Level Estimated
02:44AM -15.4558 24.4959 162° South  Level Estimated
02:45AM -15.5770 24.5357 162° South  Level Estimated
02:46AM -15.6983 24.5755 162° South  Level Estimated
02:47AM -15.8195 24.6153 162° South  Level Estimated
02:48AM -15.9407 24.6552 162° South  Level Estimated
02:49AM -16.0619 24.6952 162° South  Level Estimated
02:50AM -16.1831 24.7352 162° South  Level Estimated
02:51AM -16.3043 24.7752 162° South  Level Estimated
02:52AM -16.4255 24.8153 162° South  Level Estimated
02:53AM -16.5467 24.8554 162° South  Level Estimated
02:54AM -16.6679 24.8956 162° South  Level Estimated
02:55AM -16.7890 24.9359 162° South  Level Estimated
02:56AM -16.9102 24.9762 162° South  Level Estimated
02:57AM -17.0313 25.0165 162° South  Level Estimated
02:58AM -17.1525 25.0569 162° South  Level Estimated
02:59AM -17.2736 25.0974 162° South  Level Estimated
03:00AM -17.3947 25.1379 162° South  Level Estimated
03:01AM -17.5159 25.1784 162° South  Level Estimated
03:02AM -17.6370 25.2190 162° South  Level Estimated
03:03AM -17.7581 25.2597 162° South  Level Estimated
03:03AM -23.0730 26.1500 162° South 480 552 39,000  Level FlightAware
03:04AM -17.8792 25.3004 162° South  Level Estimated
03:04AM -23.1500 26.1870 156° South 480 552 39,000  Level FlightAware
03:04AM -23.2190 26.2200 156° South 480 552 39,000  Level FlightAware
03:05AM -23.2880 26.2540 156° South 480 552 39,000  Level FlightAware
03:06AM -23.4070 26.3060 158° South 482 555 39,000  Level FlightAware
03:06AM -23.4970 26.3480 157° South 482 555 39,000  Level FlightAware
03:07AM -23.5860 26.3890 157° South 481 554 39,000  Level FlightAware
03:08AM -23.6710 26.4290 157° South 482 555 39,000  Level FlightAware
03:08AM -23.7610 26.4710 157° South 485 558 39,000  Level FlightAware
03:09AM -23.8440 26.5100 157° South 485 558 39,000  Level FlightAware
03:10AM -23.9360 26.5530 157° South 484 557 39,000  Level FlightAware
03:11AM -24.0210 26.5930 157° South 484 557 39,000  Level FlightAware
03:11AM -24.1010 26.6310 157° South 485 558 39,000  Level FlightAware
03:12AM -24.1960 26.6750 157° South 485 558 39,000  Level FlightAware
03:13AM -24.2760 26.7160 155° Southeast 486 559 39,000  Level FlightAware
03:13AM -24.3640 26.7800 146° Southeast 491 565 39,000  Level FlightAware
03:14AM -24.4300 26.8420 139° Southeast 493 567 39,000  Level FlightAware
03:15AM -24.5080 26.9170 139° Southeast 491 565 39,000  Level FlightAware
03:15AM -24.5760 26.9840 138° Southeast 492 566 39,000  Level FlightAware
03:16AM -24.6480 27.0420 144° Southeast 468 539 39,000  Level FlightAware
03:17AM -24.7370 27.0510 175° South 413 475 39,000  Level FlightAware
03:17AM -24.7640 27.0400 200° South 404 465 39,000 -1,560 Level FlightAware
03:18AM -24.8280 26.9980 211° Southwest 411 473 37,600 -2,040 Descending FlightAware
03:18AM -24.8920 26.9510 214° Southwest 409 471 36,300 -2,100 Descending FlightAware
03:19AM -24.9630 26.9000 213° Southwest 414 476 34,700 -1,920 Descending FlightAware
03:20AM -25.0280 26.8510 214° Southwest 406 467 33,600 -1,560 Descending FlightAware
03:21AM -25.0960 26.8020 213° Southwest 397 457 32,500 -1,740 Descending FlightAware
03:21AM -25.1580 26.7570 213° Southwest 396 456 31,200 -1,980 Descending FlightAware
03:22AM -25.2190 26.7140 213° Southwest 368 423 29,900 -2,400 Descending FlightAware
03:23AM -25.2770 26.6720 213° Southwest 348 400 27,800 -3,360 Descending FlightAware
03:23AM -25.3360 26.6330 211° Southwest 338 389 25,200 -3,480 Descending FlightAware
03:24AM -25.3800 26.6290 185° South 332 382 23,800 -2,700 Descending FlightAware
03:24AM -25.4040 26.6370 163° South 334 384 23,200 -1,620 Descending FlightAware
03:24AM -25.4230 26.6520 145° Southeast 342 394 23,000 -240 Descending FlightAware
03:25AM -25.4530 26.7150 118° Southeast 354 407 23,000  Level FlightAware
03:26AM -25.4780 26.7810 113° Southeast 352 405 23,000  Level FlightAware
03:26AM -25.5050 26.8550 112° Southeast 354 407 23,000  Level FlightAware
03:27AM -25.5300 26.9220 112° Southeast 354 407 23,000  Level FlightAware
03:28AM -25.5570 26.9980 112° Southeast 354 407 23,000 -180 Level FlightAware
03:29AM -25.5830 27.0680 112° Southeast 354 407 22,800 -900 Descending FlightAware
03:29AM -25.6100 27.1410 112° Southeast 350 403 21,800 -1,200 Descending FlightAware
03:30AM -25.6340 27.2070 112° Southeast 342 394 21,100 -1,140 Descending FlightAware
03:31AM -25.6570 27.2720 111° Southeast 337 388 20,300 -1,440 Descending FlightAware
03:31AM -25.6840 27.3460 112° Southeast 341 392 19,100 -1,440 Descending FlightAware
03:32AM -25.7010 27.3940 111° Southeast 335 386 18,500 -1,320 Descending FlightAware
03:33AM -25.7260 27.4570 114° Southeast 330 380 17,600 -1,320 Descending FlightAware
03:33AM -25.7580 27.5130 122° Southeast 324 373 16,800 -1,140 Descending FlightAware
03:34AM -25.7850 27.5620 121° Southeast 316 364 16,200 -1,080 Descending FlightAware
03:35AM -25.8180 27.6210 122° Southeast 307 353 15,400 -1,320 Descending FlightAware
03:35AM -25.8490 27.6760 122° Southeast 311 358 14,400 -1,320 Descending FlightAware
03:36AM -25.8800 27.7310 122° Southeast 308 354 13,700 -1,020 Descending FlightAware
03:37AM -25.9130 27.7910 121° Southeast 305 351 13,000 -960 Descending FlightAware
03:37AM -25.9380 27.8150 139° Southeast 298 343 12,600 -1,020 Descending FlightAware
03:38AM -25.9800 27.8420 150° Southeast 296 341 12,000 -1,080 Descending FlightAware
03:38AM -26.0280 27.8720 151° Southeast 289 333 11,300 -1,020 Descending FlightAware
03:39AM -26.0810 27.9060 150° Southeast 291 335 10,600 -1,020 Descending FlightAware
03:40AM -26.1330 27.9380 151° Southeast 285 328 9,800 -1,080 Descending FlightAware
03:40AM -26.1630 27.9580 149° Southeast 289 333 9,400 -960 Descending FlightAware
03:41AM -26.1890 27.9800 143° Southeast 293 337 9,000 -960 Descending FlightAware
03:41AM -26.2160 28.0060 139° Southeast 292 336 8,600 -1,080 Descending FlightAware
03:41AM -26.2370 28.0250 141° Southeast 294 338 8,200 -1,080 Descending FlightAware
03:42AM -26.2620 28.0490 139° Southeast 288 331 7,800 -840 Descending FlightAware
03:42AM -26.2810 28.0670 140° Southeast 284 327 7,600 -360 Descending FlightAware
03:43AM -26.3110 28.0950 140° Southeast 258 297 7,500 -180 Descending FlightAware
03:43AM -26.3180 28.1050 128° Southeast 253 291 7,500  Level FlightAware
03:43AM -26.3240 28.1240 109° East 239 275 7,500 120 Level FlightAware
03:43AM -26.3290 28.1520 101° East 215 247 7,600 120 Climbing FlightAware
03:44AM -26.3330 28.1800 99° East 215 247 7,600  Level FlightAware
03:44AM -26.3200 28.2040 59° Northeast 203 234 7,600  Level FlightAware
03:45AM -26.2960 28.2080 North 203 234 7,600 -180 Level FlightAware
03:45AM -26.2820 28.2120 14° North 186 214 7,500 -840 Descending FlightAware
03:46AM -26.2590 28.2190 15° North 166 191 7,000 -1,080 Descending FlightAware
03:46AM -26.2530 28.2200 North 160 184 6,800 -900 Descending FlightAware
03:46AM -26.2320 28.2280 19° North 153 176 6,400 -840 Descending FlightAware
03:47AM -26.2100 28.2340 14° North 149 171 6,000 -780 Descending FlightAware
03:47AM -26.1940 28.2390 16° North 150 173 5,700 -540 Descending FlightAware
03:48AM -26.1520 28.2520 16° North 144 166 5,100 -480 Descending FlightAware
03:51AM -26.1392 28.2460 337° Northwest  Level Estimated
03:52AM -26.1392 28.2460 North  Level Estimated
03:53AM -26.1392 28.2460 North  Level Estimated
03:54AM -26.1392 28.2460 North  Level Estimated
03:55AM -26.1392 28.2460 North  Level Estimated
03:56AM -26.1392 28.2460 North  Level Estimated
03:57AM -26.1392 28.2460 North  Level Estimated
03:58AM -26.1392 28.2460 North  Level Estimated
03:59AM -26.1392 28.2460 North  Level Estimated
04:00AM -26.1392 28.2460 North  Level Estimated
04:01AM -26.1392 28.2460 North  Level Estimated
04:02AM -26.1392 28.2460 North  Level Estimated
04:03AM -26.1392 28.2460 North  Level Estimated
04:04AM -26.1392 28.2460 North  Level Estimated